Погода Нараянганйна 2 недели

Дакка, Бангладеш

27 января-09 февраля
  • 27января
    Сегодня
    +18°
    +28°
    Ясно и безоблачно
    ВремяПогодаТемператураВлажностьДавлениеВетер, м/сВероятность осадков
    00:00Ясно и безоблачно+21°C90 %760 мм0.2 м/с2 %
    03:00Ясно и безоблачно+19°C96 %759 мм2.0 м/с2 %
    06:00Ясно и безоблачно+18°C99 %760 мм0.1 м/с2 %
    09:00Ясно и безоблачно+22°C83 %762 мм0.4 м/с2 %
    12:00Ясно и безоблачно+26°C60 %760 мм0.8 м/с2 %
    15:00Ясно и безоблачно+28°C54 %758 мм0.8 м/с2 %
    18:00Ясно и безоблачно+24°C75 %758 мм0.4 м/с2 %
    21:00Ясно и безоблачно+22°C83 %760 мм0.1 м/с2 %
  • 28января
    Суббота
    +16°
    +29°
    Ясно и безоблачно
    ВремяПогодаТемператураВлажностьДавлениеВетер, м/сВероятность осадков
    00:00Ясно и безоблачно+20°C89 %759 мм0.3 м/с2 %
    03:00Ясно и безоблачно+19°C95 %759 мм2.1 м/с2 %
    06:00Ясно и безоблачно+19°C96 %760 мм0.3 м/с2 %
    09:00Ясно и безоблачно+22°C80 %761 мм0.7 м/с2 %
    12:00Ясно и безоблачно+27°C61 %760 мм1.0 м/с2 %
    15:00Ясно и безоблачно+28°C54 %758 мм0.9 м/с2 %
    18:00Ясно и безоблачно+24°C78 %758 мм0.3 м/с2 %
    21:00Ясно и безоблачно+21°C89 %759 мм0.2 м/с2 %
  • 29января
    Воскресенье
    +17°
    +28°
    Ясно и безоблачно
    ВремяПогодаТемператураВлажностьДавлениеВетер, м/сВероятность осадков
    00:00Ясно и безоблачно+19°C90 %760 мм0.5 м/с2 %
    03:00Ясно и безоблачно+19°C92 %759 мм2.5 м/с2 %
    06:00Ясно и безоблачно+18°C95 %760 мм0.2 м/с2 %
    09:00Ясно и безоблачно+21°C84 %761 мм0.5 м/с2 %
    12:00Ясно и безоблачно+26°C57 %760 мм0.6 м/с2 %
    15:00Ясно и безоблачно+27°C46 %758 мм0.5 м/с2 %
    18:00Ясно и безоблачно+24°C74 %759 мм0.3 м/с2 %
    21:00Ясно и безоблачно+21°C85 %760 мм0.1 м/с2 %
  • 30января
    Понедельник
    +18°
    +29°
    Ясно и безоблачно
    ВремяПогодаТемператураВлажностьДавлениеВетер, м/сВероятность осадков
    00:00Ясно и безоблачно+19°C90 %761 мм0.4 м/с2 %
    03:00Ясно и безоблачно+18°C94 %760 мм2.5 м/с2 %
    06:00Ясно и безоблачно+18°C97 %761 мм0.2 м/с2 %
    09:00Ясно и безоблачно+22°C81 %762 мм0.4 м/с2 %
    12:00Ясно и безоблачно+27°C51 %761 мм0.4 м/с2 %
    15:00Ясно и безоблачно+29°C44 %759 мм0.5 м/с2 %
    18:00Ясно и безоблачно+24°C72 %759 мм0.3 м/с2 %
    21:00Ясно и безоблачно+22°C84 %760 мм0.1 м/с2 %
  • 31января
    Вторник
    +19°
    +29°
    Ясно и безоблачно
    ВремяПогодаТемператураВлажностьДавлениеВетер, м/сВероятность осадков
    00:00Ясно и безоблачно+20°C90 %760 мм0.4 м/с2 %
    03:00Ясно и безоблачно+19°C96 %760 мм2.4 м/с2 %
    06:00Ясно и безоблачно+19°C96 %760 мм0.0 м/с2 %
    09:00Ясно и безоблачно+22°C83 %761 мм0.5 м/с2 %
    12:00Ясно и безоблачно+27°C59 %760 мм0.6 м/с2 %
    15:00Ясно и безоблачно+29°C52 %758 мм0.8 м/с2 %
    18:00Облачно с прояснениями+25°C70 %758 мм0.4 м/с2 %
    21:00Практически безоблачно+23°C79 %759 мм0.1 м/с2 %
Мы используем cookies
Соглашаюсь